createdAt,value
2022-12-03T00:00:22.711Z,17.80
2022-12-03T00:02:49.619Z,17.42
2022-12-03T00:05:16.629Z,18.05
2022-12-03T00:07:43.469Z,17.08
2022-12-03T00:10:11.528Z,18.30
2022-12-03T00:12:38.496Z,18.77
2022-12-03T00:15:07.197Z,19.48
2022-12-03T00:17:34.097Z,17.98
2022-12-03T00:20:01.153Z,19.90
2022-12-03T00:22:28.024Z,17.80
2022-12-03T00:24:55.036Z,18.27
2022-12-03T00:27:22.248Z,18.83
2022-12-03T00:29:49.017Z,16.98
2022-12-03T00:32:15.852Z,17.52
2022-12-03T00:34:42.762Z,17.60
2022-12-03T00:37:09.632Z,17.23
2022-12-03T00:39:36.454Z,18.55
2022-12-03T00:42:03.383Z,16.83
2022-12-03T00:44:30.277Z,16.30
2022-12-03T00:46:57.238Z,17.20
2022-12-03T00:49:24.105Z,17.92
2022-12-03T00:51:50.882Z,17.48
2022-12-03T00:54:17.705Z,19.55
2022-12-03T00:59:12.463Z,19.27
2022-12-03T01:01:39.350Z,16.63
2022-12-03T01:04:06.177Z,18.02
2022-12-03T01:06:32.965Z,18.38
2022-12-03T01:08:59.778Z,16.75
2022-12-03T01:11:38.584Z,18.15
2022-12-03T01:14:19.487Z,18.08
2022-12-03T01:16:47.537Z,19.10
2022-12-03T01:19:16.130Z,17.50
2022-12-03T01:21:48.869Z,18.17
2022-12-03T01:24:15.915Z,17.00
2022-12-03T01:26:42.864Z,16.35
2022-12-03T01:29:09.757Z,16.70
2022-12-03T01:31:55.103Z,16.55
2022-12-03T01:34:21.930Z,16.50
2022-12-03T01:36:48.747Z,18.88
2022-12-03T01:39:15.576Z,16.83
2022-12-03T01:41:42.461Z,18.08
2022-12-03T01:44:27.798Z,17.02
2022-12-03T01:46:57.693Z,16.38
2022-12-03T01:49:31.543Z,17.23
2022-12-03T01:51:59.152Z,16.80
2022-12-03T01:54:37.764Z,17.02
2022-12-03T01:57:05.537Z,18.98
2022-12-03T01:59:38.648Z,16.88
2022-12-03T02:02:22.202Z,17.48
2022-12-03T02:04:49.402Z,18.08
2022-12-03T02:07:25.753Z,17.13
2022-12-03T02:09:54.028Z,16.73
2022-12-03T02:12:27.889Z,15.77
2022-12-03T02:14:55.434Z,15.35
2022-12-03T02:17:22.654Z,17.77
2022-12-03T02:19:49.789Z,17.98
2022-12-03T02:22:25.232Z,17.73
2022-12-03T02:25:04.473Z,15.98
2022-12-03T02:27:31.246Z,17.50
2022-12-03T02:29:58.261Z,18.60
2022-12-03T02:32:25.325Z,20.60
2022-12-03T02:34:52.497Z,18.70
2022-12-03T02:37:32.407Z,19.17
2022-12-03T02:40:04.368Z,20.30
2022-12-03T02:42:37.830Z,20.27
2022-12-03T02:45:20.124Z,19.60
2022-12-03T02:47:57.630Z,20.17
2022-12-03T02:50:38.869Z,18.83
2022-12-03T02:53:24.608Z,17.90
2022-12-03T02:55:53.160Z,19.35
2022-12-03T02:58:22.086Z,18.00
2022-12-03T03:00:50.415Z,19.40
2022-12-03T03:03:18.938Z,18.67
2022-12-03T03:05:46.742Z,20.33
2022-12-03T03:08:13.972Z,18.58
2022-12-03T03:10:42.645Z,18.15
2022-12-03T03:13:12.853Z,20.95
2022-12-03T03:15:41.413Z,18.88
2022-12-03T03:18:09.711Z,19.13
2022-12-03T03:20:37.061Z,18.33
2022-12-03T03:23:13.064Z,19.08
2022-12-03T03:25:43.205Z,18.70
2022-12-03T03:28:10.507Z,18.05
2022-12-03T03:30:40.837Z,17.52
2022-12-03T03:33:08.189Z,19.08
2022-12-03T03:35:36.050Z,16.90
2022-12-03T03:38:03.225Z,17.83
2022-12-03T03:40:30.336Z,18.13
2022-12-03T03:42:58.236Z,18.30
2022-12-03T03:45:29.171Z,17.42
2022-12-03T03:47:59.019Z,19.07
2022-12-03T03:50:28.313Z,19.13
2022-12-03T03:52:56.271Z,20.00
2022-12-03T03:55:23.346Z,18.17
2022-12-03T03:57:50.382Z,18.35
2022-12-03T04:00:17.458Z,17.98
2022-12-03T04:02:44.619Z,21.48
2022-12-03T04:05:20.210Z,18.60
2022-12-03T04:07:47.211Z,19.85
2022-12-03T04:10:38.133Z,19.20
2022-12-03T04:13:05.995Z,19.20
2022-12-03T04:15:32.828Z,18.33
2022-12-03T04:18:18.314Z,17.58
2022-12-03T04:20:45.119Z,18.30
2022-12-03T04:23:11.963Z,16.73
2022-12-03T04:25:57.230Z,17.00
2022-12-03T04:28:43.031Z,18.48
2022-12-03T04:31:28.514Z,16.88
2022-12-03T04:34:14.021Z,14.88
2022-12-03T04:36:40.811Z,17.30
2022-12-03T04:39:07.681Z,16.85
2022-12-03T04:41:34.469Z,16.90
2022-12-03T04:44:19.804Z,15.35
2022-12-03T04:46:46.651Z,15.43
2022-12-03T04:49:13.498Z,15.27
2022-12-03T04:51:40.310Z,15.88
2022-12-03T04:54:07.713Z,18.13
2022-12-03T04:56:34.657Z,18.58
2022-12-03T04:59:01.503Z,16.25
2022-12-03T05:01:28.310Z,15.88
2022-12-03T05:03:55.260Z,15.38
2022-12-03T05:06:22.343Z,15.60
2022-12-03T05:08:49.223Z,17.05
2022-12-03T05:11:16.042Z,15.95
2022-12-03T05:13:43.274Z,15.18
2022-12-03T05:16:10.387Z,15.25
2022-12-03T05:18:37.343Z,14.57
2022-12-03T05:21:04.235Z,13.25
2022-12-03T05:23:31.089Z,12.55
2022-12-03T05:25:57.885Z,12.20
2022-12-03T05:28:24.761Z,13.02
2022-12-03T05:30:52.080Z,13.77
2022-12-03T05:33:19.074Z,13.32
2022-12-03T05:35:46.266Z,13.88
2022-12-03T05:38:13.137Z,14.70
2022-12-03T05:40:40.259Z,13.38
2022-12-03T05:43:07.372Z,13.48
2022-12-03T05:45:36.794Z,13.30
2022-12-03T05:48:05.879Z,13.88
2022-12-03T05:50:34.636Z,13.93
2022-12-03T05:53:01.669Z,14.93
2022-12-03T05:55:28.710Z,14.70
2022-12-03T05:57:55.534Z,14.45
2022-12-03T06:00:28.288Z,13.38
2022-12-03T06:02:55.791Z,13.77
2022-12-03T06:05:24.051Z,12.63
2022-12-03T06:07:52.574Z,12.77
2022-12-03T06:10:24.863Z,13.80
2022-12-03T06:15:19.574Z,13.27
2022-12-03T06:17:46.724Z,14.63
2022-12-03T06:20:16.695Z,14.30
2022-12-03T06:22:43.680Z,14.85
2022-12-03T06:25:11.176Z,14.75
2022-12-03T06:27:38.096Z,13.55
2022-12-03T06:30:06.606Z,12.82
2022-12-03T06:32:33.466Z,14.45
2022-12-03T06:35:00.266Z,13.05
2022-12-03T06:37:27.066Z,12.70
2022-12-03T06:39:53.951Z,13.25
2022-12-03T06:42:20.750Z,13.63
2022-12-03T06:44:47.591Z,14.90
2022-12-03T06:47:14.370Z,14.90
2022-12-03T06:49:41.199Z,14.55
2022-12-03T06:52:08.013Z,12.48
2022-12-03T06:54:34.886Z,14.73
2022-12-03T06:57:01.755Z,12.20
2022-12-03T06:59:28.761Z,13.70
2022-12-03T07:01:55.655Z,11.88
2022-12-03T07:04:22.514Z,10.93
2022-12-03T07:06:49.329Z,11.82
2022-12-03T07:09:17.253Z,12.13
2022-12-03T07:11:44.076Z,13.07
2022-12-03T07:14:14.085Z,12.45
2022-12-03T07:16:43.298Z,14.68
2022-12-03T07:19:10.970Z,14.75
2022-12-03T07:21:38.440Z,14.80
2022-12-03T07:24:06.044Z,12.85
2022-12-03T07:26:33.240Z,13.98
2022-12-03T07:29:00.216Z,12.80
2022-12-03T07:31:27.427Z,12.82
2022-12-03T07:33:54.311Z,13.90
2022-12-03T07:36:21.265Z,12.55
2022-12-03T07:38:49.334Z,11.82
2022-12-03T07:41:16.239Z,10.50
2022-12-03T07:43:44.845Z,10.50
2022-12-03T07:46:11.791Z,11.55
2022-12-03T07:48:38.720Z,12.57
2022-12-03T07:51:05.685Z,13.85
2022-12-03T07:53:32.548Z,13.35
2022-12-03T07:55:59.369Z,11.88
2022-12-03T07:58:26.381Z,13.15
2022-12-03T08:00:53.260Z,12.23
2022-12-03T08:03:20.231Z,13.05
2022-12-03T08:05:47.025Z,13.00
2022-12-03T08:08:13.962Z,11.35
2022-12-03T08:10:41.163Z,10.15
2022-12-03T08:13:13.736Z,10.50
2022-12-03T08:15:40.750Z,10.25
2022-12-03T08:18:19.121Z,10.68
2022-12-03T08:20:48.468Z,9.85
2022-12-03T08:23:24.251Z,9.93
2022-12-03T08:25:52.641Z,8.40
2022-12-03T08:28:22.102Z,9.98
2022-12-03T08:31:32.470Z,13.63
2022-12-03T08:34:27.134Z,11.30
2022-12-03T08:37:01.480Z,11.23
2022-12-03T08:39:34.630Z,11.30
2022-12-03T08:42:35.715Z,10.88
2022-12-03T08:45:30.399Z,10.15
2022-12-03T08:48:03.951Z,11.88
2022-12-03T08:50:33.833Z,10.30
2022-12-03T08:53:21.231Z,9.50
2022-12-03T08:55:53.027Z,10.27
2022-12-03T08:58:41.059Z,9.88
2022-12-03T09:01:11.051Z,10.85
2022-12-03T09:03:41.086Z,11.00
2022-12-03T09:06:07.935Z,9.85
2022-12-03T09:08:34.792Z,12.10
2022-12-03T09:11:01.628Z,10.95
2022-12-03T09:13:28.477Z,10.68
2022-12-03T09:15:55.322Z,10.80
2022-12-03T09:18:22.125Z,11.43
2022-12-03T09:20:48.894Z,10.80
2022-12-03T09:23:15.720Z,11.02
2022-12-03T09:25:42.578Z,9.15
2022-12-03T09:28:09.396Z,10.65
2022-12-03T09:30:36.363Z,11.55
2022-12-03T09:33:03.274Z,9.50
2022-12-03T09:35:30.144Z,10.38
2022-12-03T09:37:56.932Z,12.18
2022-12-03T09:40:24.145Z,11.95
2022-12-03T09:42:51.950Z,13.20
2022-12-03T09:45:18.981Z,13.38
2022-12-03T09:47:48.725Z,12.05
2022-12-03T09:50:21.750Z,11.27
2022-12-03T09:52:50.075Z,12.15
2022-12-03T09:55:24.015Z,12.30
2022-12-03T09:57:53.149Z,14.20
2022-12-03T10:00:24.029Z,12.90
2022-12-03T10:02:52.738Z,11.50
2022-12-03T10:05:21.362Z,12.00
2022-12-03T10:07:50.701Z,11.18
2022-12-03T10:10:20.970Z,10.65
2022-12-03T10:12:48.409Z,11.55
2022-12-03T10:15:18.087Z,13.25
2022-12-03T10:17:47.793Z,12.20
2022-12-03T10:20:17.047Z,13.05
2022-12-03T10:22:44.115Z,11.75
2022-12-03T10:25:14.432Z,13.38
2022-12-03T10:27:42.098Z,11.00
2022-12-03T10:30:19.656Z,10.45
2022-12-03T10:32:49.136Z,10.40
2022-12-03T10:35:20.120Z,12.32
2022-12-03T10:38:07.367Z,12.85
2022-12-03T10:40:39.228Z,11.25
2022-12-03T10:43:32.494Z,12.30
2022-12-03T10:46:03.871Z,12.60
2022-12-03T10:48:31.565Z,12.60
2022-12-03T10:51:15.578Z,14.63
2022-12-03T10:53:42.550Z,13.07
2022-12-03T10:56:34.370Z,15.88
2022-12-03T10:59:01.293Z,16.42
2022-12-03T11:01:28.505Z,14.75
2022-12-03T11:04:02.342Z,16.23
2022-12-03T11:06:33.129Z,14.95
2022-12-03T11:09:05.320Z,15.80
2022-12-03T11:11:35.330Z,14.18
2022-12-03T11:14:04.242Z,12.48
2022-12-03T11:16:40.164Z,12.82
2022-12-03T11:19:13.198Z,12.80
2022-12-03T11:22:05.458Z,13.63
2022-12-03T11:24:34.573Z,13.77
2022-12-03T11:27:01.354Z,14.73
2022-12-03T11:29:56.428Z,14.07
2022-12-03T11:32:38.450Z,15.05
2022-12-03T11:35:23.341Z,16.17
2022-12-03T11:37:50.236Z,16.80
2022-12-03T11:40:17.064Z,17.80
2022-12-03T11:42:45.550Z,17.80
2022-12-03T11:45:38.185Z,17.73
2022-12-03T11:50:50.305Z,17.05
2022-12-03T11:53:25.524Z,17.52
2022-12-03T11:56:08.874Z,17.88
2022-12-03T11:58:39.165Z,15.93
2022-12-03T12:01:07.993Z,17.38
2022-12-03T12:03:41.616Z,16.42
2022-12-03T12:06:11.330Z,16.55
2022-12-03T12:09:04.007Z,17.80
2022-12-03T12:11:35.783Z,18.15
2022-12-03T12:14:02.572Z,19.35
2022-12-03T12:16:41.339Z,17.85
2022-12-03T12:19:38.021Z,18.90
2022-12-03T12:22:24.924Z,17.25
2022-12-03T12:24:54.251Z,17.50
2022-12-03T12:27:31.854Z,18.45
2022-12-03T12:30:01.666Z,16.95
2022-12-03T12:32:32.163Z,18.45
2022-12-03T12:35:27.959Z,17.48
2022-12-03T12:38:07.049Z,18.02
2022-12-03T12:40:37.238Z,18.85
2022-12-03T12:43:25.557Z,17.60
2022-12-03T12:46:13.580Z,19.60
2022-12-03T12:48:49.954Z,19.13
2022-12-03T12:51:18.862Z,18.70
2022-12-03T12:53:45.904Z,17.58
2022-12-03T12:56:21.971Z,18.13
2022-12-03T12:58:49.027Z,16.48
2022-12-03T13:01:36.461Z,16.67
2022-12-03T13:04:12.249Z,17.50
2022-12-03T13:06:39.759Z,17.77
2022-12-03T13:09:18.248Z,16.10
2022-12-03T13:11:47.454Z,17.02
2022-12-03T13:14:23.235Z,17.75
2022-12-03T13:16:52.453Z,15.98
2022-12-03T13:19:31.092Z,19.42
2022-12-03T13:22:01.775Z,17.63
2022-12-03T13:24:41.220Z,15.57
2022-12-03T13:27:13.895Z,17.67
2022-12-03T13:29:40.753Z,16.77
2022-12-03T13:32:12.520Z,18.10
2022-12-03T13:34:39.795Z,16.85
2022-12-03T13:37:16.342Z,17.20
2022-12-03T13:39:52.578Z,18.00
2022-12-03T13:42:39.389Z,15.88
2022-12-03T13:45:36.371Z,16.83
2022-12-03T13:48:15.226Z,18.55
2022-12-03T13:50:45.109Z,16.95
2022-12-03T13:53:23.947Z,15.85
2022-12-03T13:56:26.072Z,16.67
2022-12-03T13:58:52.906Z,16.02
2022-12-03T14:01:19.734Z,16.65
2022-12-03T14:03:46.649Z,16.95
2022-12-03T14:06:13.463Z,18.50
2022-12-03T14:08:40.329Z,17.38
2022-12-03T14:11:07.560Z,16.95
2022-12-03T14:13:34.428Z,17.70
2022-12-03T14:16:01.257Z,16.25
2022-12-03T14:18:28.134Z,19.70
2022-12-03T14:20:54.904Z,17.42
2022-12-03T14:23:21.673Z,17.00
2022-12-03T14:25:48.484Z,18.27
2022-12-03T14:28:15.238Z,19.35
2022-12-03T14:30:42.004Z,17.35
2022-12-03T14:33:08.894Z,19.13
2022-12-03T14:35:35.727Z,18.48
2022-12-03T14:38:02.655Z,17.42
2022-12-03T14:40:29.501Z,16.80
2022-12-03T14:42:56.263Z,19.52
2022-12-03T14:45:24.254Z,16.92
2022-12-03T14:47:51.062Z,16.83
2022-12-03T14:50:18.047Z,18.75
2022-12-03T14:52:44.906Z,18.92
2022-12-03T14:55:11.703Z,16.83
2022-12-03T14:57:38.685Z,18.90
2022-12-03T15:00:07.356Z,18.88
2022-12-03T15:02:34.450Z,20.08
2022-12-03T15:05:01.410Z,20.30
2022-12-03T15:07:28.366Z,19.42
2022-12-03T15:09:55.672Z,20.55
2022-12-03T15:12:22.667Z,21.35
2022-12-03T15:14:49.525Z,21.30
2022-12-03T15:17:16.341Z,22.25
2022-12-03T15:19:43.149Z,27.33
2022-12-03T15:22:09.904Z,27.65
2022-12-03T15:24:36.703Z,26.95
2022-12-03T15:27:03.555Z,21.45
2022-12-03T15:29:30.474Z,23.90
2022-12-03T15:31:59.355Z,21.40
2022-12-03T15:34:26.672Z,20.63
2022-12-03T15:36:53.435Z,20.05
2022-12-03T15:39:20.298Z,23.55
2022-12-03T15:41:47.242Z,22.38
2022-12-03T15:44:14.034Z,21.77
2022-12-03T15:46:40.879Z,22.85
2022-12-03T15:49:07.795Z,20.60
2022-12-03T15:51:34.575Z,20.33
2022-12-03T15:54:01.366Z,24.02
2022-12-03T15:56:28.119Z,20.30
2022-12-03T15:58:54.900Z,21.17
2022-12-03T16:01:21.790Z,19.08
2022-12-03T16:03:48.587Z,18.80
2022-12-03T16:06:15.663Z,20.70
2022-12-03T16:08:42.484Z,19.88
2022-12-03T16:11:09.244Z,20.40
2022-12-03T16:13:36.094Z,19.25
2022-12-03T16:16:02.939Z,20.30
2022-12-03T16:18:29.857Z,21.48
2022-12-03T16:20:56.624Z,19.58
2022-12-03T16:23:23.472Z,18.90
2022-12-03T16:25:50.260Z,22.50
2022-12-03T16:28:17.094Z,20.35
2022-12-03T16:30:44.014Z,21.58
2022-12-03T16:33:10.831Z,22.40
2022-12-03T16:35:37.624Z,20.85
2022-12-03T16:38:04.394Z,18.40
2022-12-03T16:40:31.176Z,20.60
2022-12-03T16:42:57.985Z,19.63
2022-12-03T16:45:50.953Z,20.65
2022-12-03T16:48:24.616Z,19.02
2022-12-03T16:50:51.412Z,19.92
2022-12-03T16:53:18.207Z,20.67
2022-12-03T16:55:45.041Z,20.95
2022-12-03T16:58:11.865Z,19.88
2022-12-03T17:00:38.687Z,21.33
2022-12-03T17:03:05.513Z,20.90
2022-12-03T17:05:32.568Z,20.05
2022-12-03T17:07:59.448Z,19.15
2022-12-03T17:10:26.326Z,18.63
2022-12-03T17:13:10.144Z,20.52
2022-12-03T17:15:37.664Z,20.55
2022-12-03T17:18:04.667Z,19.23
2022-12-03T17:20:32.553Z,19.60
2022-12-03T17:23:00.197Z,19.92
2022-12-03T17:25:27.617Z,18.45
2022-12-03T17:27:54.766Z,18.73
2022-12-03T17:30:21.596Z,18.58
2022-12-03T17:32:50.362Z,17.42
2022-12-03T17:35:17.978Z,18.52
2022-12-03T17:37:45.047Z,19.63
2022-12-03T17:40:13.863Z,18.33
2022-12-03T17:42:40.667Z,20.08
2022-12-03T17:45:08.244Z,19.38
2022-12-03T17:47:35.162Z,18.58
2022-12-03T17:50:02.232Z,18.63
2022-12-03T17:52:29.080Z,19.58
2022-12-03T17:55:10.480Z,19.55
2022-12-03T17:57:38.850Z,19.65
2022-12-03T18:00:06.521Z,16.25
2022-12-03T18:02:33.284Z,19.20
2022-12-03T18:05:00.097Z,18.10
2022-12-03T18:07:26.948Z,19.10
2022-12-03T18:09:54.093Z,18.75
2022-12-03T18:12:21.034Z,20.83
2022-12-03T18:14:47.843Z,18.02
2022-12-03T18:17:14.636Z,16.85
2022-12-03T18:19:41.529Z,16.50
2022-12-03T18:22:08.391Z,17.10
2022-12-03T18:24:35.344Z,18.10
2022-12-03T18:27:02.140Z,16.20
2022-12-03T18:29:28.949Z,15.23
2022-12-03T18:31:55.779Z,15.35
2022-12-03T18:34:22.668Z,20.08
2022-12-03T18:36:49.826Z,20.38
2022-12-03T18:39:35.671Z,17.70
2022-12-03T18:42:09.168Z,17.33
2022-12-03T18:44:35.981Z,15.82
2022-12-03T18:47:05.706Z,16.15
2022-12-03T18:49:32.534Z,15.95
2022-12-03T18:51:59.904Z,15.52
2022-12-03T18:54:26.780Z,15.45
2022-12-03T18:56:53.528Z,15.57
2022-12-03T18:59:20.327Z,17.80
2022-12-03T19:01:47.267Z,17.25
2022-12-03T19:04:14.106Z,17.23
2022-12-03T19:06:40.901Z,15.25
2022-12-03T19:09:07.803Z,15.27
2022-12-03T19:11:34.630Z,19.00
2022-12-03T19:14:03.087Z,16.02
2022-12-03T19:16:30.201Z,16.77
2022-12-03T19:18:57.291Z,16.67
2022-12-03T19:21:24.232Z,16.65
2022-12-03T19:26:37.983Z,16.65
2022-12-03T19:29:04.881Z,15.85
2022-12-03T19:31:33.451Z,18.92
2022-12-03T19:34:00.437Z,15.20
2022-12-03T19:36:30.986Z,18.83
2022-12-03T19:38:59.650Z,15.35
2022-12-03T19:41:28.472Z,14.70
2022-12-03T19:43:56.591Z,18.13
2022-12-03T19:46:26.052Z,16.10
2022-12-03T19:48:54.026Z,16.40
2022-12-03T19:51:34.041Z,17.27
2022-12-03T19:54:01.457Z,16.83
2022-12-03T19:56:30.370Z,15.50
2022-12-03T19:58:57.875Z,15.30
2022-12-03T20:01:33.390Z,17.35
2022-12-03T20:04:02.285Z,17.85
2022-12-03T20:06:31.621Z,16.55
2022-12-03T20:09:00.927Z,18.80
2022-12-03T20:11:30.471Z,18.05
2022-12-03T20:14:03.929Z,15.88
2022-12-03T20:16:30.764Z,15.35
2022-12-03T20:19:00.541Z,17.95
2022-12-03T20:21:29.900Z,14.98
2022-12-03T20:23:56.786Z,15.10
2022-12-03T20:26:24.449Z,14.35
2022-12-03T20:28:54.018Z,14.77
2022-12-03T20:31:23.670Z,15.60
2022-12-03T20:33:54.236Z,16.67
2022-12-03T20:36:22.850Z,15.85
2022-12-03T20:38:57.890Z,16.75
2022-12-03T20:41:25.368Z,15.45
2022-12-03T20:43:53.168Z,14.98
2022-12-03T20:46:21.263Z,17.88
2022-12-03T20:48:48.282Z,16.98
2022-12-03T20:51:18.331Z,15.65
2022-12-03T20:53:46.087Z,16.92
2022-12-03T20:56:21.978Z,16.58
2022-12-03T20:58:49.514Z,17.55
2022-12-03T21:01:19.037Z,16.20
2022-12-03T21:03:46.943Z,17.60
2022-12-03T21:06:14.639Z,16.45
2022-12-03T21:08:42.772Z,16.80
2022-12-03T21:11:11.564Z,16.83
2022-12-03T21:13:41.570Z,15.85
2022-12-03T21:16:10.766Z,16.38
2022-12-03T21:18:38.051Z,18.10
2022-12-03T21:21:06.163Z,18.00
2022-12-03T21:23:33.694Z,16.15
2022-12-03T21:26:09.923Z,17.33
2022-12-03T21:28:38.571Z,17.17
2022-12-03T21:31:08.503Z,17.02
2022-12-03T21:33:36.502Z,16.55
2022-12-03T21:36:04.708Z,15.85
2022-12-03T21:38:32.682Z,19.42
2022-12-03T21:41:00.231Z,17.20
2022-12-03T21:43:27.454Z,17.17
2022-12-03T21:45:54.460Z,16.17
2022-12-03T21:48:22.370Z,16.38
2022-12-03T21:51:10.694Z,16.23
2022-12-03T21:53:43.272Z,18.27
2022-12-03T21:56:13.541Z,16.75
2022-12-03T21:58:41.608Z,15.98
2022-12-03T22:01:26.661Z,16.95
2022-12-03T22:03:53.633Z,15.20
2022-12-03T22:06:21.230Z,17.30
2022-12-03T22:08:48.313Z,16.42
2022-12-03T22:11:20.816Z,17.40
2022-12-03T22:13:48.067Z,16.88
2022-12-03T22:16:20.234Z,15.82
2022-12-03T22:21:16.615Z,16.65
2022-12-03T22:23:44.192Z,17.00
2022-12-03T22:26:13.315Z,15.60
2022-12-03T22:28:43.447Z,16.05
2022-12-03T22:31:10.672Z,18.23
2022-12-03T22:33:38.105Z,16.35
2022-12-03T22:36:08.612Z,15.80
2022-12-03T22:38:35.427Z,15.95
2022-12-03T22:41:11.100Z,15.70
2022-12-03T22:43:38.148Z,14.82
2022-12-03T22:46:07.182Z,16.40
2022-12-03T22:48:34.868Z,16.05
2022-12-03T22:51:02.121Z,16.17
2022-12-03T22:53:28.964Z,18.45
2022-12-03T22:55:57.517Z,16.08
2022-12-03T22:58:25.447Z,16.65
2022-12-03T23:00:52.677Z,15.60
2022-12-03T23:03:20.336Z,15.20
2022-12-03T23:05:47.584Z,14.98
2022-12-03T23:08:17.528Z,17.55
2022-12-03T23:10:47.044Z,14.80
2022-12-03T23:13:14.626Z,16.92
2022-12-03T23:15:47.196Z,14.82
2022-12-03T23:18:14.076Z,17.95
2022-12-03T23:20:59.621Z,17.50
2022-12-03T23:23:28.259Z,15.07
2022-12-03T23:26:00.175Z,14.90
2022-12-03T23:28:28.598Z,16.10
2022-12-03T23:30:55.938Z,14.85
2022-12-03T23:33:23.002Z,13.70
2022-12-03T23:35:50.017Z,16.50
2022-12-03T23:38:16.917Z,15.18
2022-12-03T23:40:48.083Z,15.48
2022-12-03T23:43:15.755Z,16.98
2022-12-03T23:45:42.599Z,17.52
2022-12-03T23:48:09.500Z,16.02
2022-12-03T23:50:39.597Z,14.75
2022-12-03T23:53:06.430Z,16.88
2022-12-03T23:55:33.728Z,15.05
2022-12-03T23:58:00.485Z,15.98
